sensor_id;sensor_type;location;lat;lon;timestamp;P1;durP1;ratioP1;P2;durP2;ratioP2
67028;SDS011;53934;52.142;11.738;2022-07-23T00:01:51;9.13;;;5.15;;
67028;SDS011;53934;52.142;11.738;2022-07-23T00:04:17;10.02;;;6.05;;
67028;SDS011;53934;52.142;11.738;2022-07-23T00:06:43;12.88;;;6.03;;
67028;SDS011;53934;52.142;11.738;2022-07-23T00:09:10;11.80;;;5.22;;
67028;SDS011;53934;52.142;11.738;2022-07-23T00:11:36;9.98;;;5.70;;
67028;SDS011;53934;52.142;11.738;2022-07-23T00:14:04;10.23;;;6.15;;
67028;SDS011;53934;52.142;11.738;2022-07-23T00:16:30;9.25;;;5.78;;
67028;SDS011;53934;52.142;11.738;2022-07-23T00:18:56;8.30;;;5.50;;
67028;SDS011;53934;52.142;11.738;2022-07-23T00:21:26;8.38;;;6.07;;
67028;SDS011;53934;52.142;11.738;2022-07-23T00:23:53;10.48;;;6.07;;
67028;SDS011;53934;52.142;11.738;2022-07-23T00:26:19;9.13;;;5.85;;
67028;SDS011;53934;52.142;11.738;2022-07-23T00:28:45;9.80;;;5.53;;
67028;SDS011;53934;52.142;11.738;2022-07-23T00:31:13;12.55;;;5.80;;
67028;SDS011;53934;52.142;11.738;2022-07-23T00:33:40;9.20;;;5.63;;
67028;SDS011;53934;52.142;11.738;2022-07-23T00:36:07;10.38;;;6.13;;
67028;SDS011;53934;52.142;11.738;2022-07-23T00:38:33;10.80;;;5.80;;
67028;SDS011;53934;52.142;11.738;2022-07-23T00:41:00;9.25;;;5.95;;
67028;SDS011;53934;52.142;11.738;2022-07-23T00:43:26;13.68;;;5.78;;
67028;SDS011;53934;52.142;11.738;2022-07-23T00:45:53;9.25;;;6.15;;
67028;SDS011;53934;52.142;11.738;2022-07-23T00:48:20;10.88;;;6.38;;
67028;SDS011;53934;52.142;11.738;2022-07-23T00:50:47;9.50;;;5.70;;
67028;SDS011;53934;52.142;11.738;2022-07-23T00:53:13;10.50;;;6.03;;
67028;SDS011;53934;52.142;11.738;2022-07-23T00:55:41;11.55;;;5.93;;
67028;SDS011;53934;52.142;11.738;2022-07-23T00:58:07;10.48;;;5.80;;
67028;SDS011;53934;52.142;11.738;2022-07-23T01:00:35;10.65;;;5.85;;
67028;SDS011;53934;52.142;11.738;2022-07-23T01:03:01;10.27;;;5.70;;
67028;SDS011;53934;52.142;11.738;2022-07-23T01:05:29;8.45;;;5.90;;
67028;SDS011;53934;52.142;11.738;2022-07-23T01:07:55;8.98;;;6.50;;
67028;SDS011;53934;52.142;11.738;2022-07-23T01:10:22;9.60;;;6.63;;
67028;SDS011;53934;52.142;11.738;2022-07-23T01:12:58;10.38;;;5.88;;
67028;SDS011;53934;52.142;11.738;2022-07-23T01:15:26;8.75;;;5.57;;
67028;SDS011;53934;52.142;11.738;2022-07-23T01:17:53;10.82;;;6.15;;
67028;SDS011;53934;52.142;11.738;2022-07-23T01:20:20;11.25;;;5.75;;
67028;SDS011;53934;52.142;11.738;2022-07-23T01:22:48;15.55;;;6.10;;
67028;SDS011;53934;52.142;11.738;2022-07-23T01:25:14;10.00;;;5.45;;
67028;SDS011;53934;52.142;11.738;2022-07-23T01:27:41;10.15;;;5.90;;
67028;SDS011;53934;52.142;11.738;2022-07-23T01:30:08;12.00;;;5.72;;
67028;SDS011;53934;52.142;11.738;2022-07-23T01:32:35;12.05;;;5.93;;
67028;SDS011;53934;52.142;11.738;2022-07-23T01:35:02;7.97;;;5.68;;
67028;SDS011;53934;52.142;11.738;2022-07-23T01:37:28;10.95;;;5.57;;
67028;SDS011;53934;52.142;11.738;2022-07-23T01:39:56;9.70;;;5.88;;
67028;SDS011;53934;52.142;11.738;2022-07-23T01:42:22;10.18;;;6.32;;
67028;SDS011;53934;52.142;11.738;2022-07-23T01:44:49;13.18;;;6.50;;
67028;SDS011;53934;52.142;11.738;2022-07-23T01:47:15;8.75;;;5.80;;
67028;SDS011;53934;52.142;11.738;2022-07-23T01:49:42;14.65;;;6.85;;
67028;SDS011;53934;52.142;11.738;2022-07-23T01:52:08;10.52;;;5.72;;
67028;SDS011;53934;52.142;11.738;2022-07-23T01:54:36;8.93;;;5.60;;
67028;SDS011;53934;52.142;11.738;2022-07-23T01:57:04;7.47;;;5.43;;
67028;SDS011;53934;52.142;11.738;2022-07-23T01:59:31;11.68;;;6.80;;
67028;SDS011;53934;52.142;11.738;2022-07-23T02:01:58;9.13;;;5.63;;
67028;SDS011;53934;52.142;11.738;2022-07-23T02:04:24;9.32;;;6.03;;
67028;SDS011;53934;52.142;11.738;2022-07-23T02:06:51;8.55;;;6.03;;
67028;SDS011;53934;52.142;11.738;2022-07-23T02:09:18;8.38;;;6.00;;
67028;SDS011;53934;52.142;11.738;2022-07-23T02:11:44;8.18;;;5.63;;
67028;SDS011;53934;52.142;11.738;2022-07-23T02:14:12;9.23;;;6.15;;
67028;SDS011;53934;52.142;11.738;2022-07-23T02:16:38;12.00;;;6.50;;
67028;SDS011;53934;52.142;11.738;2022-07-23T02:19:05;12.75;;;6.25;;
67028;SDS011;53934;52.142;11.738;2022-07-23T02:21:31;10.15;;;6.45;;
67028;SDS011;53934;52.142;11.738;2022-07-23T02:23:57;10.85;;;6.40;;
67028;SDS011;53934;52.142;11.738;2022-07-23T02:26:24;14.20;;;7.38;;
67028;SDS011;53934;52.142;11.738;2022-07-23T02:28:50;12.35;;;7.28;;
67028;SDS011;53934;52.142;11.738;2022-07-23T02:31:19;14.27;;;7.35;;
67028;SDS011;53934;52.142;11.738;2022-07-23T02:33:45;11.63;;;7.07;;
67028;SDS011;53934;52.142;11.738;2022-07-23T02:36:11;10.60;;;7.22;;
67028;SDS011;53934;52.142;11.738;2022-07-23T02:38:38;13.48;;;7.93;;
67028;SDS011;53934;52.142;11.738;2022-07-23T02:41:04;13.77;;;7.93;;
67028;SDS011;53934;52.142;11.738;2022-07-23T02:43:30;12.02;;;7.70;;
67028;SDS011;53934;52.142;11.738;2022-07-23T02:45:57;15.30;;;8.00;;
67028;SDS011;53934;52.142;11.738;2022-07-23T02:48:24;11.82;;;8.50;;
67028;SDS011;53934;52.142;11.738;2022-07-23T02:50:51;16.73;;;8.77;;
67028;SDS011;53934;52.142;11.738;2022-07-23T02:53:17;12.52;;;8.07;;
67028;SDS011;53934;52.142;11.738;2022-07-23T02:55:44;15.23;;;8.40;;
67028;SDS011;53934;52.142;11.738;2022-07-23T02:58:10;16.60;;;8.70;;
67028;SDS011;53934;52.142;11.738;2022-07-23T03:00:36;14.30;;;8.95;;
67028;SDS011;53934;52.142;11.738;2022-07-23T03:03:03;13.77;;;8.38;;
67028;SDS011;53934;52.142;11.738;2022-07-23T03:05:30;14.98;;;8.73;;
67028;SDS011;53934;52.142;11.738;2022-07-23T03:07:57;14.68;;;8.77;;
67028;SDS011;53934;52.142;11.738;2022-07-23T03:10:23;14.32;;;8.57;;
67028;SDS011;53934;52.142;11.738;2022-07-23T03:12:49;13.00;;;8.95;;
67028;SDS011;53934;52.142;11.738;2022-07-23T03:15:16;14.88;;;9.27;;
67028;SDS011;53934;52.142;11.738;2022-07-23T03:17:42;11.63;;;8.57;;
67028;SDS011;53934;52.142;11.738;2022-07-23T03:20:09;18.30;;;9.02;;
67028;SDS011;53934;52.142;11.738;2022-07-23T03:22:37;12.77;;;9.00;;
67028;SDS011;53934;52.142;11.738;2022-07-23T03:25:03;14.88;;;8.85;;
67028;SDS011;53934;52.142;11.738;2022-07-23T03:27:30;15.40;;;8.70;;
67028;SDS011;53934;52.142;11.738;2022-07-23T03:29:57;14.32;;;8.23;;
67028;SDS011;53934;52.142;11.738;2022-07-23T03:32:24;16.77;;;8.70;;
67028;SDS011;53934;52.142;11.738;2022-07-23T03:34:51;14.32;;;8.30;;
67028;SDS011;53934;52.142;11.738;2022-07-23T03:37:18;16.52;;;8.73;;
67028;SDS011;53934;52.142;11.738;2022-07-23T03:39:46;13.20;;;8.82;;
67028;SDS011;53934;52.142;11.738;2022-07-23T03:42:13;15.60;;;9.38;;
67028;SDS011;53934;52.142;11.738;2022-07-23T03:44:39;21.80;;;8.98;;
67028;SDS011;53934;52.142;11.738;2022-07-23T03:47:06;14.20;;;8.90;;
67028;SDS011;53934;52.142;11.738;2022-07-23T03:49:32;16.20;;;9.05;;
67028;SDS011;53934;52.142;11.738;2022-07-23T03:51:59;13.77;;;8.95;;
67028;SDS011;53934;52.142;11.738;2022-07-23T03:54:26;12.63;;;8.45;;
67028;SDS011;53934;52.142;11.738;2022-07-23T03:56:53;16.77;;;9.35;;
67028;SDS011;53934;52.142;11.738;2022-07-23T03:59:20;15.73;;;8.85;;
67028;SDS011;53934;52.142;11.738;2022-07-23T04:01:47;15.13;;;9.45;;
67028;SDS011;53934;52.142;11.738;2022-07-23T04:04:13;16.52;;;9.93;;
67028;SDS011;53934;52.142;11.738;2022-07-23T04:06:39;14.25;;;9.32;;
67028;SDS011;53934;52.142;11.738;2022-07-23T04:09:06;12.55;;;8.98;;
67028;SDS011;53934;52.142;11.738;2022-07-23T04:11:32;14.80;;;9.50;;
67028;SDS011;53934;52.142;11.738;2022-07-23T04:14:00;16.58;;;9.10;;
67028;SDS011;53934;52.142;11.738;2022-07-23T04:16:26;12.70;;;8.85;;
67028;SDS011;53934;52.142;11.738;2022-07-23T04:18:53;13.48;;;8.80;;
67028;SDS011;53934;52.142;11.738;2022-07-23T04:21:19;14.00;;;9.55;;
67028;SDS011;53934;52.142;11.738;2022-07-23T04:23:46;14.45;;;8.48;;
67028;SDS011;53934;52.142;11.738;2022-07-23T04:26:12;22.13;;;8.45;;
67028;SDS011;53934;52.142;11.738;2022-07-23T04:28:39;12.35;;;8.25;;
67028;SDS011;53934;52.142;11.738;2022-07-23T04:31:06;15.70;;;8.70;;
67028;SDS011;53934;52.142;11.738;2022-07-23T04:33:33;16.55;;;9.60;;
67028;SDS011;53934;52.142;11.738;2022-07-23T04:35:59;13.48;;;8.02;;
67028;SDS011;53934;52.142;11.738;2022-07-23T04:38:26;15.50;;;8.55;;
67028;SDS011;53934;52.142;11.738;2022-07-23T04:40:52;16.25;;;9.25;;
67028;SDS011;53934;52.142;11.738;2022-07-23T04:43:18;17.90;;;9.05;;
67028;SDS011;53934;52.142;11.738;2022-07-23T04:45:45;18.10;;;8.68;;
67028;SDS011;53934;52.142;11.738;2022-07-23T04:48:13;13.23;;;8.43;;
67028;SDS011;53934;52.142;11.738;2022-07-23T04:50:39;20.55;;;9.30;;
67028;SDS011;53934;52.142;11.738;2022-07-23T04:53:07;15.48;;;8.80;;
67028;SDS011;53934;52.142;11.738;2022-07-23T04:55:34;13.98;;;8.63;;
67028;SDS011;53934;52.142;11.738;2022-07-23T04:58:00;16.77;;;9.30;;
67028;SDS011;53934;52.142;11.738;2022-07-23T05:00:26;13.27;;;8.75;;
67028;SDS011;53934;52.142;11.738;2022-07-23T05:02:53;14.57;;;9.10;;
67028;SDS011;53934;52.142;11.738;2022-07-23T05:05:20;16.83;;;9.75;;
67028;SDS011;53934;52.142;11.738;2022-07-23T05:07:47;17.65;;;9.73;;
67028;SDS011;53934;52.142;11.738;2022-07-23T05:10:13;15.50;;;9.43;;
67028;SDS011;53934;52.142;11.738;2022-07-23T05:12:40;15.13;;;8.98;;
67028;SDS011;53934;52.142;11.738;2022-07-23T05:15:06;15.38;;;9.77;;
67028;SDS011;53934;52.142;11.738;2022-07-23T05:17:33;18.27;;;8.70;;
67028;SDS011;53934;52.142;11.738;2022-07-23T05:19:59;13.30;;;8.98;;
67028;SDS011;53934;52.142;11.738;2022-07-23T05:22:27;15.32;;;8.80;;
67028;SDS011;53934;52.142;11.738;2022-07-23T05:24:53;14.68;;;8.52;;
67028;SDS011;53934;52.142;11.738;2022-07-23T05:27:19;12.52;;;7.82;;
67028;SDS011;53934;52.142;11.738;2022-07-23T05:29:46;11.52;;;7.60;;
67028;SDS011;53934;52.142;11.738;2022-07-23T05:32:12;19.25;;;8.70;;
67028;SDS011;53934;52.142;11.738;2022-07-23T05:34:39;10.15;;;7.85;;
67028;SDS011;53934;52.142;11.738;2022-07-23T05:37:05;13.63;;;8.52;;
67028;SDS011;53934;52.142;11.738;2022-07-23T05:39:33;14.13;;;8.43;;
67028;SDS011;53934;52.142;11.738;2022-07-23T05:42:00;17.17;;;8.30;;
67028;SDS011;53934;52.142;11.738;2022-07-23T05:44:26;17.40;;;8.50;;
67028;SDS011;53934;52.142;11.738;2022-07-23T05:46:53;14.82;;;8.75;;
67028;SDS011;53934;52.142;11.738;2022-07-23T05:49:19;13.82;;;7.82;;
67028;SDS011;53934;52.142;11.738;2022-07-23T05:51:45;13.38;;;8.15;;
67028;SDS011;53934;52.142;11.738;2022-07-23T05:54:12;14.00;;;8.45;;
67028;SDS011;53934;52.142;11.738;2022-07-23T05:56:39;12.98;;;7.80;;
67028;SDS011;53934;52.142;11.738;2022-07-23T05:59:06;18.20;;;9.18;;
67028;SDS011;53934;52.142;11.738;2022-07-23T06:01:32;19.48;;;8.75;;
67028;SDS011;53934;52.142;11.738;2022-07-23T06:03:58;15.63;;;7.78;;
67028;SDS011;53934;52.142;11.738;2022-07-23T06:06:25;17.52;;;9.25;;
67028;SDS011;53934;52.142;11.738;2022-07-23T06:08:51;15.32;;;8.93;;
67028;SDS011;53934;52.142;11.738;2022-07-23T06:11:17;14.95;;;9.05;;
67028;SDS011;53934;52.142;11.738;2022-07-23T06:13:45;17.13;;;8.35;;
67028;SDS011;53934;52.142;11.738;2022-07-23T06:16:11;12.25;;;8.00;;
67028;SDS011;53934;52.142;11.738;2022-07-23T06:18:38;16.73;;;8.00;;
67028;SDS011;53934;52.142;11.738;2022-07-23T06:21:04;14.55;;;8.02;;
67028;SDS011;53934;52.142;11.738;2022-07-23T06:23:31;12.70;;;7.53;;
67028;SDS011;53934;52.142;11.738;2022-07-23T06:25:57;12.75;;;7.30;;
67028;SDS011;53934;52.142;11.738;2022-07-23T06:28:24;11.65;;;7.70;;
67028;SDS011;53934;52.142;11.738;2022-07-23T06:30:52;16.60;;;8.57;;
67028;SDS011;53934;52.142;11.738;2022-07-23T06:33:18;11.82;;;7.50;;
67028;SDS011;53934;52.142;11.738;2022-07-23T06:35:44;11.68;;;6.88;;
67028;SDS011;53934;52.142;11.738;2022-07-23T06:38:11;12.23;;;7.13;;
67028;SDS011;53934;52.142;11.738;2022-07-23T06:40:37;12.45;;;7.13;;
67028;SDS011;53934;52.142;11.738;2022-07-23T06:43:04;11.30;;;7.30;;
67028;SDS011;53934;52.142;11.738;2022-07-23T06:45:30;12.48;;;7.40;;
67028;SDS011;53934;52.142;11.738;2022-07-23T06:47:58;10.45;;;7.32;;
67028;SDS011;53934;52.142;11.738;2022-07-23T06:50:24;16.55;;;8.70;;
67028;SDS011;53934;52.142;11.738;2022-07-23T06:52:51;11.18;;;7.43;;
67028;SDS011;53934;52.142;11.738;2022-07-23T06:55:17;14.13;;;7.60;;
67028;SDS011;53934;52.142;11.738;2022-07-23T06:57:43;11.98;;;7.50;;
67028;SDS011;53934;52.142;11.738;2022-07-23T07:00:10;11.75;;;6.57;;
67028;SDS011;53934;52.142;11.738;2022-07-23T07:02:37;12.43;;;7.10;;
67028;SDS011;53934;52.142;11.738;2022-07-23T07:05:05;10.38;;;6.40;;
67028;SDS011;53934;52.142;11.738;2022-07-23T07:07:32;10.27;;;6.43;;
67028;SDS011;53934;52.142;11.738;2022-07-23T07:09:58;12.50;;;6.30;;
67028;SDS011;53934;52.142;11.738;2022-07-23T07:12:24;17.98;;;6.45;;
67028;SDS011;53934;52.142;11.738;2022-07-23T07:14:51;13.95;;;7.10;;
67028;SDS011;53934;52.142;11.738;2022-07-23T07:17:18;9.07;;;5.97;;
67028;SDS011;53934;52.142;11.738;2022-07-23T07:19:44;11.27;;;5.95;;
67028;SDS011;53934;52.142;11.738;2022-07-23T07:22:12;11.90;;;6.88;;
67028;SDS011;53934;52.142;11.738;2022-07-23T07:24:38;11.00;;;6.15;;
67028;SDS011;53934;52.142;11.738;2022-07-23T07:27:05;17.23;;;6.30;;
67028;SDS011;53934;52.142;11.738;2022-07-23T07:29:31;7.53;;;5.50;;
67028;SDS011;53934;52.142;11.738;2022-07-23T07:31:58;9.18;;;5.20;;
67028;SDS011;53934;52.142;11.738;2022-07-23T07:34:24;8.55;;;5.10;;
67028;SDS011;53934;52.142;11.738;2022-07-23T07:36:50;10.85;;;6.38;;
67028;SDS011;53934;52.142;11.738;2022-07-23T07:39:18;9.23;;;5.35;;
67028;SDS011;53934;52.142;11.738;2022-07-23T07:41:44;10.65;;;4.97;;
67028;SDS011;53934;52.142;11.738;2022-07-23T07:44:11;10.85;;;5.47;;
67028;SDS011;53934;52.142;11.738;2022-07-23T07:46:37;12.50;;;5.07;;
67028;SDS011;53934;52.142;11.738;2022-07-23T07:49:03;7.93;;;4.90;;
67028;SDS011;53934;52.142;11.738;2022-07-23T07:51:30;8.43;;;4.72;;
67028;SDS011;53934;52.142;11.738;2022-07-23T07:53:57;11.77;;;5.22;;
67028;SDS011;53934;52.142;11.738;2022-07-23T07:56:25;9.13;;;4.35;;
67028;SDS011;53934;52.142;11.738;2022-07-23T07:58:51;9.93;;;4.80;;
67028;SDS011;53934;52.142;11.738;2022-07-23T08:01:18;12.45;;;4.53;;
67028;SDS011;53934;52.142;11.738;2022-07-23T08:03:45;10.73;;;4.63;;
67028;SDS011;53934;52.142;11.738;2022-07-23T08:06:11;10.43;;;4.25;;
67028;SDS011;53934;52.142;11.738;2022-07-23T08:08:38;9.60;;;4.60;;
67028;SDS011;53934;52.142;11.738;2022-07-23T08:11:04;9.55;;;5.32;;
67028;SDS011;53934;52.142;11.738;2022-07-23T08:13:32;9.57;;;5.28;;
67028;SDS011;53934;52.142;11.738;2022-07-23T08:15:58;10.73;;;5.60;;
67028;SDS011;53934;52.142;11.738;2022-07-23T08:18:24;9.48;;;5.38;;
67028;SDS011;53934;52.142;11.738;2022-07-23T08:20:51;8.93;;;5.28;;
67028;SDS011;53934;52.142;11.738;2022-07-23T08:23:17;8.02;;;4.68;;
67028;SDS011;53934;52.142;11.738;2022-07-23T08:25:45;14.07;;;5.32;;
67028;SDS011;53934;52.142;11.738;2022-07-23T08:28:12;10.48;;;4.90;;
67028;SDS011;53934;52.142;11.738;2022-07-23T08:30:42;11.70;;;5.00;;
67028;SDS011;53934;52.142;11.738;2022-07-23T08:33:10;7.80;;;5.25;;
67028;SDS011;53934;52.142;11.738;2022-07-23T08:35:38;7.03;;;4.35;;
67028;SDS011;53934;52.142;11.738;2022-07-23T08:38:07;9.30;;;4.80;;
67028;SDS011;53934;52.142;11.738;2022-07-23T08:40:35;7.22;;;4.80;;
67028;SDS011;53934;52.142;11.738;2022-07-23T08:43:03;7.07;;;4.97;;
67028;SDS011;53934;52.142;11.738;2022-07-23T08:45:31;10.80;;;4.90;;
67028;SDS011;53934;52.142;11.738;2022-07-23T08:48:06;10.93;;;5.55;;
67028;SDS011;53934;52.142;11.738;2022-07-23T08:50:34;8.50;;;5.50;;
67028;SDS011;53934;52.142;11.738;2022-07-23T08:53:02;10.27;;;5.38;;
67028;SDS011;53934;52.142;11.738;2022-07-23T08:55:32;10.80;;;5.50;;
67028;SDS011;53934;52.142;11.738;2022-07-23T08:57:58;8.40;;;4.82;;
67028;SDS011;53934;52.142;11.738;2022-07-23T09:00:25;6.68;;;4.50;;
67028;SDS011;53934;52.142;11.738;2022-07-23T09:02:51;7.30;;;5.18;;
67028;SDS011;53934;52.142;11.738;2022-07-23T09:05:19;11.00;;;4.80;;
67028;SDS011;53934;52.142;11.738;2022-07-23T09:08:03;6.63;;;4.78;;
67028;SDS011;53934;52.142;11.738;2022-07-23T09:10:30;6.75;;;4.70;;
67028;SDS011;53934;52.142;11.738;2022-07-23T09:13:14;10.00;;;4.85;;
67028;SDS011;53934;52.142;11.738;2022-07-23T09:15:49;8.40;;;4.65;;
67028;SDS011;53934;52.142;11.738;2022-07-23T09:18:16;8.27;;;4.38;;
67028;SDS011;53934;52.142;11.738;2022-07-23T09:20:44;7.10;;;4.25;;
67028;SDS011;53934;52.142;11.738;2022-07-23T09:23:10;6.32;;;3.88;;
67028;SDS011;53934;52.142;11.738;2022-07-23T09:25:37;7.93;;;4.47;;
67028;SDS011;53934;52.142;11.738;2022-07-23T09:28:03;7.57;;;4.25;;
67028;SDS011;53934;52.142;11.738;2022-07-23T09:30:32;8.57;;;3.53;;
67028;SDS011;53934;52.142;11.738;2022-07-23T09:33:03;7.95;;;4.07;;
67028;SDS011;53934;52.142;11.738;2022-07-23T09:38:14;6.45;;;3.80;;
67028;SDS011;53934;52.142;11.738;2022-07-23T09:40:41;9.45;;;3.58;;
67028;SDS011;53934;52.142;11.738;2022-07-23T09:43:08;7.82;;;4.03;;
67028;SDS011;53934;52.142;11.738;2022-07-23T09:45:34;8.27;;;3.45;;
67028;SDS011;53934;52.142;11.738;2022-07-23T09:48:10;4.90;;;3.00;;
67028;SDS011;53934;52.142;11.738;2022-07-23T09:50:38;6.03;;;3.10;;
67028;SDS011;53934;52.142;11.738;2022-07-23T09:53:06;4.88;;;2.80;;
67028;SDS011;53934;52.142;11.738;2022-07-23T09:55:34;5.50;;;2.83;;
67028;SDS011;53934;52.142;11.738;2022-07-23T09:58:03;3.92;;;2.75;;
67028;SDS011;53934;52.142;11.738;2022-07-23T10:00:29;4.93;;;3.15;;
67028;SDS011;53934;52.142;11.738;2022-07-23T10:02:57;6.28;;;3.03;;
67028;SDS011;53934;52.142;11.738;2022-07-23T10:05:24;6.53;;;3.03;;
67028;SDS011;53934;52.142;11.738;2022-07-23T10:07:52;5.78;;;3.30;;
67028;SDS011;53934;52.142;11.738;2022-07-23T10:10:20;8.30;;;2.95;;
67028;SDS011;53934;52.142;11.738;2022-07-23T10:12:48;4.65;;;2.80;;
67028;SDS011;53934;52.142;11.738;2022-07-23T10:15:43;7.60;;;3.58;;
67028;SDS011;53934;52.142;11.738;2022-07-23T10:18:10;5.85;;;2.83;;
67028;SDS011;53934;52.142;11.738;2022-07-23T10:20:37;5.75;;;2.85;;
67028;SDS011;53934;52.142;11.738;2022-07-23T10:23:04;5.78;;;2.83;;
67028;SDS011;53934;52.142;11.738;2022-07-23T10:25:39;5.68;;;3.65;;
67028;SDS011;53934;52.142;11.738;2022-07-23T10:28:22;11.20;;;2.85;;
67028;SDS011;53934;52.142;11.738;2022-07-23T10:31:05;7.80;;;3.25;;
67028;SDS011;53934;52.142;11.738;2022-07-23T10:33:41;5.85;;;2.92;;
67028;SDS011;53934;52.142;11.738;2022-07-23T10:36:20;10.80;;;3.47;;
67028;SDS011;53934;52.142;11.738;2022-07-23T10:38:54;9.80;;;3.25;;
67028;SDS011;53934;52.142;11.738;2022-07-23T10:41:32;5.82;;;3.30;;
67028;SDS011;53934;52.142;11.738;2022-07-23T10:44:05;7.93;;;3.17;;
67028;SDS011;53934;52.142;11.738;2022-07-23T10:46:33;6.50;;;3.53;;
67028;SDS011;53934;52.142;11.738;2022-07-23T10:54:45;14.82;;;3.42;;
67028;SDS011;53934;52.142;11.738;2022-07-23T10:57:15;9.07;;;3.42;;
67028;SDS011;53934;52.142;11.738;2022-07-23T11:02:47;5.35;;;3.45;;
67028;SDS011;53934;52.142;11.738;2022-07-23T11:05:15;7.70;;;3.35;;
67028;SDS011;53934;52.142;11.738;2022-07-23T11:10:43;6.40;;;3.30;;
67028;SDS011;53934;52.142;11.738;2022-07-23T11:16:17;7.22;;;3.65;;
67028;SDS011;53934;52.142;11.738;2022-07-23T11:18:54;7.53;;;2.90;;
67028;SDS011;53934;52.142;11.738;2022-07-23T11:21:41;5.18;;;2.78;;
67028;SDS011;53934;52.142;11.738;2022-07-23T11:24:09;4.82;;;2.90;;
67028;SDS011;53934;52.142;11.738;2022-07-23T11:26:46;4.93;;;3.05;;
67028;SDS011;53934;52.142;11.738;2022-07-23T11:32:05;7.20;;;2.92;;
67028;SDS011;53934;52.142;11.738;2022-07-23T11:34:34;4.80;;;2.80;;
67028;SDS011;53934;52.142;11.738;2022-07-23T11:37:02;7.05;;;2.95;;
67028;SDS011;53934;52.142;11.738;2022-07-23T11:39:31;4.07;;;2.90;;
67028;SDS011;53934;52.142;11.738;2022-07-23T11:41:59;5.20;;;3.05;;
67028;SDS011;53934;52.142;11.738;2022-07-23T11:44:26;6.15;;;3.03;;
67028;SDS011;53934;52.142;11.738;2022-07-23T11:46:58;3.85;;;2.28;;
67028;SDS011;53934;52.142;11.738;2022-07-23T11:49:25;5.65;;;2.35;;
67028;SDS011;53934;52.142;11.738;2022-07-23T11:52:02;3.83;;;2.20;;
67028;SDS011;53934;52.142;11.738;2022-07-23T11:54:30;5.97;;;2.28;;
67028;SDS011;53934;52.142;11.738;2022-07-23T11:56:57;5.18;;;2.45;;
67028;SDS011;53934;52.142;11.738;2022-07-23T11:59:23;5.32;;;2.30;;
67028;SDS011;53934;52.142;11.738;2022-07-23T12:01:59;5.03;;;2.30;;
67028;SDS011;53934;52.142;11.738;2022-07-23T12:04:36;3.15;;;1.80;;
67028;SDS011;53934;52.142;11.738;2022-07-23T12:07:03;3.80;;;2.13;;
67028;SDS011;53934;52.142;11.738;2022-07-23T12:09:29;3.17;;;2.00;;
67028;SDS011;53934;52.142;11.738;2022-07-23T12:11:56;4.05;;;2.00;;
67028;SDS011;53934;52.142;11.738;2022-07-23T12:14:23;5.72;;;2.42;;
67028;SDS011;53934;52.142;11.738;2022-07-23T12:19:35;2.70;;;1.88;;
67028;SDS011;53934;52.142;11.738;2022-07-23T12:22:02;4.07;;;1.80;;
67028;SDS011;53934;52.142;11.738;2022-07-23T12:24:29;3.90;;;1.90;;
67028;SDS011;53934;52.142;11.738;2022-07-23T12:27:08;3.97;;;1.95;;
67028;SDS011;53934;52.142;11.738;2022-07-23T12:29:35;6.00;;;2.03;;
67028;SDS011;53934;52.142;11.738;2022-07-23T12:32:02;3.15;;;1.80;;
67028;SDS011;53934;52.142;11.738;2022-07-23T12:34:42;5.10;;;1.95;;
67028;SDS011;53934;52.142;11.738;2022-07-23T12:37:08;3.38;;;1.60;;
67028;SDS011;53934;52.142;11.738;2022-07-23T12:39:51;4.57;;;1.80;;
67028;SDS011;53934;52.142;11.738;2022-07-23T12:42:18;4.85;;;1.67;;
67028;SDS011;53934;52.142;11.738;2022-07-23T12:50:33;4.22;;;1.55;;
67028;SDS011;53934;52.142;11.738;2022-07-23T12:53:04;6.80;;;1.77;;
67028;SDS011;53934;52.142;11.738;2022-07-23T12:55:33;5.00;;;1.85;;
67028;SDS011;53934;52.142;11.738;2022-07-23T12:58:04;3.67;;;1.75;;
67028;SDS011;53934;52.142;11.738;2022-07-23T13:00:32;5.47;;;1.80;;
67028;SDS011;53934;52.142;11.738;2022-07-23T13:02:58;3.10;;;1.85;;
67028;SDS011;53934;52.142;11.738;2022-07-23T13:05:25;4.00;;;1.80;;
67028;SDS011;53934;52.142;11.738;2022-07-23T13:07:52;5.85;;;1.75;;
67028;SDS011;53934;52.142;11.738;2022-07-23T13:10:19;5.85;;;1.50;;
67028;SDS011;53934;52.142;11.738;2022-07-23T13:12:45;4.35;;;1.90;;
67028;SDS011;53934;52.142;11.738;2022-07-23T13:15:11;3.47;;;1.50;;
67028;SDS011;53934;52.142;11.738;2022-07-23T13:17:38;5.72;;;1.75;;
67028;SDS011;53934;52.142;11.738;2022-07-23T13:20:04;3.47;;;1.65;;
67028;SDS011;53934;52.142;11.738;2022-07-23T13:22:32;7.63;;;1.80;;
67028;SDS011;53934;52.142;11.738;2022-07-23T13:24:59;2.25;;;1.35;;
67028;SDS011;53934;52.142;11.738;2022-07-23T13:27:26;3.72;;;1.55;;
67028;SDS011;53934;52.142;11.738;2022-07-23T13:29:52;5.00;;;1.67;;
67028;SDS011;53934;52.142;11.738;2022-07-23T13:32:19;5.07;;;1.83;;
67028;SDS011;53934;52.142;11.738;2022-07-23T13:34:45;3.97;;;1.70;;
67028;SDS011;53934;52.142;11.738;2022-07-23T13:37:11;3.65;;;1.65;;
67028;SDS011;53934;52.142;11.738;2022-07-23T13:39:38;4.05;;;1.70;;
67028;SDS011;53934;52.142;11.738;2022-07-23T13:42:06;4.78;;;2.00;;
67028;SDS011;53934;52.142;11.738;2022-07-23T13:44:32;7.28;;;1.98;;
67028;SDS011;53934;52.142;11.738;2022-07-23T13:46:58;5.20;;;1.75;;
67028;SDS011;53934;52.142;11.738;2022-07-23T13:49:25;5.03;;;1.80;;
67028;SDS011;53934;52.142;11.738;2022-07-23T13:51:51;4.68;;;1.85;;
67028;SDS011;53934;52.142;11.738;2022-07-23T13:54:18;3.40;;;1.52;;
67028;SDS011;53934;52.142;11.738;2022-07-23T13:56:44;4.60;;;2.25;;
67028;SDS011;53934;52.142;11.738;2022-07-23T13:59:12;4.95;;;1.70;;
67028;SDS011;53934;52.142;11.738;2022-07-23T14:01:39;3.47;;;1.63;;
67028;SDS011;53934;52.142;11.738;2022-07-23T14:04:05;3.45;;;1.90;;
67028;SDS011;53934;52.142;11.738;2022-07-23T14:06:32;3.97;;;1.88;;
67028;SDS011;53934;52.142;11.738;2022-07-23T14:08:58;4.15;;;1.90;;
67028;SDS011;53934;52.142;11.738;2022-07-23T14:11:27;5.03;;;1.90;;
67028;SDS011;53934;52.142;11.738;2022-07-23T14:13:59;3.45;;;1.50;;
67028;SDS011;53934;52.142;11.738;2022-07-23T14:16:28;3.40;;;1.58;;
67028;SDS011;53934;52.142;11.738;2022-07-23T14:18:54;5.85;;;1.52;;
67028;SDS011;53934;52.142;11.738;2022-07-23T14:21:21;4.85;;;1.65;;
67028;SDS011;53934;52.142;11.738;2022-07-23T14:23:47;2.03;;;1.35;;
67028;SDS011;53934;52.142;11.738;2022-07-23T14:26:13;5.95;;;1.70;;
67028;SDS011;53934;52.142;11.738;2022-07-23T14:28:40;4.57;;;1.77;;
67028;SDS011;53934;52.142;11.738;2022-07-23T14:31:06;3.90;;;1.45;;
67028;SDS011;53934;52.142;11.738;2022-07-23T14:33:34;5.38;;;1.52;;
67028;SDS011;53934;52.142;11.738;2022-07-23T14:36:00;3.90;;;1.80;;
67028;SDS011;53934;52.142;11.738;2022-07-23T14:38:27;4.18;;;1.67;;
67028;SDS011;53934;52.142;11.738;2022-07-23T14:40:55;4.00;;;1.80;;
67028;SDS011;53934;52.142;11.738;2022-07-23T14:43:21;3.72;;;2.00;;
67028;SDS011;53934;52.142;11.738;2022-07-23T14:45:48;2.63;;;1.50;;
67028;SDS011;53934;52.142;11.738;2022-07-23T14:48:14;3.42;;;1.50;;
67028;SDS011;53934;52.142;11.738;2022-07-23T14:50:42;4.85;;;1.50;;
67028;SDS011;53934;52.142;11.738;2022-07-23T14:53:09;2.53;;;1.52;;
67028;SDS011;53934;52.142;11.738;2022-07-23T14:55:37;5.50;;;1.88;;
67028;SDS011;53934;52.142;11.738;2022-07-23T14:58:04;3.35;;;1.70;;
67028;SDS011;53934;52.142;11.738;2022-07-23T15:00:30;3.90;;;1.60;;